sensor_id;sensor_type;location;lat;lon;timestamp;temperature;humidity
13203;DHT22;6666;51.626;7.530;2023-04-01T00:01:10;10.60;99.90
13203;DHT22;6666;51.626;7.530;2023-04-01T00:03:40;10.60;99.90
13203;DHT22;6666;51.626;7.530;2023-04-01T00:06:11;10.50;99.90
13203;DHT22;6666;51.626;7.530;2023-04-01T00:08:40;10.50;99.90
13203;DHT22;6666;51.626;7.530;2023-04-01T00:11:08;10.50;99.90
13203;DHT22;6666;51.626;7.530;2023-04-01T00:13:38;10.50;99.90
13203;DHT22;6666;51.626;7.530;2023-04-01T00:16:07;10.50;99.90
13203;DHT22;6666;51.626;7.530;2023-04-01T00:18:47;10.40;99.90
13203;DHT22;6666;51.626;7.530;2023-04-01T00:21:16;10.40;99.90
13203;DHT22;6666;51.626;7.530;2023-04-01T00:23:44;10.40;99.90
13203;DHT22;6666;51.626;7.530;2023-04-01T00:26:13;10.40;99.90
13203;DHT22;6666;51.626;7.530;2023-04-01T00:28:47;10.40;99.90
13203;DHT22;6666;51.626;7.530;2023-04-01T00:31:15;10.30;99.90
13203;DHT22;6666;51.626;7.530;2023-04-01T00:33:44;10.30;99.90
13203;DHT22;6666;51.626;7.530;2023-04-01T00:36:14;10.30;99.90
13203;DHT22;6666;51.626;7.530;2023-04-01T00:38:43;10.30;99.90
13203;DHT22;6666;51.626;7.530;2023-04-01T00:41:12;10.30;99.90
13203;DHT22;6666;51.626;7.530;2023-04-01T00:43:44;10.30;99.90
13203;DHT22;6666;51.626;7.530;2023-04-01T00:46:14;10.20;99.90
13203;DHT22;6666;51.626;7.530;2023-04-01T00:48:45;10.20;99.90
13203;DHT22;6666;51.626;7.530;2023-04-01T00:51:18;10.20;99.90
13203;DHT22;6666;51.626;7.530;2023-04-01T00:53:50;10.20;99.90
13203;DHT22;6666;51.626;7.530;2023-04-01T00:56:22;10.20;99.90
13203;DHT22;6666;51.626;7.530;2023-04-01T00:58:57;10.20;99.90
13203;DHT22;6666;51.626;7.530;2023-04-01T01:01:28;10.20;99.90
13203;DHT22;6666;51.626;7.530;2023-04-01T01:03:58;10.20;99.90
13203;DHT22;6666;51.626;7.530;2023-04-01T01:06:39;10.20;99.90
13203;DHT22;6666;51.626;7.530;2023-04-01T01:09:25;10.30;99.90
13203;DHT22;6666;51.626;7.530;2023-04-01T01:12:00;10.20;99.90
13203;DHT22;6666;51.626;7.530;2023-04-01T01:14:39;10.20;99.90
13203;DHT22;6666;51.626;7.530;2023-04-01T01:17:17;10.20;99.90
13203;DHT22;6666;51.626;7.530;2023-04-01T01:20:17;10.20;99.90
13203;DHT22;6666;51.626;7.530;2023-04-01T01:23:12;10.20;99.90
13203;DHT22;6666;51.626;7.530;2023-04-01T01:25:53;10.10;99.90
13203;DHT22;6666;51.626;7.530;2023-04-01T01:28:37;10.10;99.90
13203;DHT22;6666;51.626;7.530;2023-04-01T01:31:19;10.20;99.90
13203;DHT22;6666;51.626;7.530;2023-04-01T01:33:57;10.20;99.90
13203;DHT22;6666;51.626;7.530;2023-04-01T01:36:38;10.10;99.90
13203;DHT22;6666;51.626;7.530;2023-04-01T01:39:10;10.10;99.90
13203;DHT22;6666;51.626;7.530;2023-04-01T01:41:42;10.10;99.90
13203;DHT22;6666;51.626;7.530;2023-04-01T01:44:13;10.10;99.90
13203;DHT22;6666;51.626;7.530;2023-04-01T01:46:44;10.10;99.90
13203;DHT22;6666;51.626;7.530;2023-04-01T01:49:13;10.10;99.90
13203;DHT22;6666;51.626;7.530;2023-04-01T01:51:44;10.10;99.90
13203;DHT22;6666;51.626;7.530;2023-04-01T01:54:13;10.10;99.90
13203;DHT22;6666;51.626;7.530;2023-04-01T01:56:45;10.00;99.90
13203;DHT22;6666;51.626;7.530;2023-04-01T01:59:17;10.00;99.90
13203;DHT22;6666;51.626;7.530;2023-04-01T02:01:51;10.10;99.90
13203;DHT22;6666;51.626;7.530;2023-04-01T02:04:21;10.00;99.90
13203;DHT22;6666;51.626;7.530;2023-04-01T02:06:55;10.10;99.90
13203;DHT22;6666;51.626;7.530;2023-04-01T02:09:24;10.10;99.90
13203;DHT22;6666;51.626;7.530;2023-04-01T02:11:56;10.10;99.90
13203;DHT22;6666;51.626;7.530;2023-04-01T02:14:49;10.10;99.90
13203;DHT22;6666;51.626;7.530;2023-04-01T02:17:20;10.00;99.90
13203;DHT22;6666;51.626;7.530;2023-04-01T02:19:53;10.00;99.90
13203;DHT22;6666;51.626;7.530;2023-04-01T02:22:28;10.00;99.90
13203;DHT22;6666;51.626;7.530;2023-04-01T02:24:58;10.00;99.90
13203;DHT22;6666;51.626;7.530;2023-04-01T02:27:28;10.00;99.90
13203;DHT22;6666;51.626;7.530;2023-04-01T02:29:57;10.00;99.90
13203;DHT22;6666;51.626;7.530;2023-04-01T02:32:26;10.00;99.90
13203;DHT22;6666;51.626;7.530;2023-04-01T02:34:56;10.00;99.90
13203;DHT22;6666;51.626;7.530;2023-04-01T02:37:27;10.00;99.90
13203;DHT22;6666;51.626;7.530;2023-04-01T02:39:59;10.00;99.90
13203;DHT22;6666;51.626;7.530;2023-04-01T02:42:28;10.00;99.90
13203;DHT22;6666;51.626;7.530;2023-04-01T02:44:56;10.00;99.90
13203;DHT22;6666;51.626;7.530;2023-04-01T02:47:25;9.90;99.90
13203;DHT22;6666;51.626;7.530;2023-04-01T02:49:54;9.90;99.90
13203;DHT22;6666;51.626;7.530;2023-04-01T02:52:25;9.90;99.90
13203;DHT22;6666;51.626;7.530;2023-04-01T02:54:56;9.90;99.90
13203;DHT22;6666;51.626;7.530;2023-04-01T02:57:25;9.90;99.90
13203;DHT22;6666;51.626;7.530;2023-04-01T02:59:54;9.90;99.90
13203;DHT22;6666;51.626;7.530;2023-04-01T03:02:22;9.90;99.90
13203;DHT22;6666;51.626;7.530;2023-04-01T03:04:51;10.00;99.90
13203;DHT22;6666;51.626;7.530;2023-04-01T03:07:19;9.90;99.90
13203;DHT22;6666;51.626;7.530;2023-04-01T03:09:48;9.90;99.90
13203;DHT22;6666;51.626;7.530;2023-04-01T03:12:19;9.80;99.90
13203;DHT22;6666;51.626;7.530;2023-04-01T03:14:50;9.80;99.90
13203;DHT22;6666;51.626;7.530;2023-04-01T03:17:18;9.90;99.90
13203;DHT22;6666;51.626;7.530;2023-04-01T03:19:47;9.80;99.90
13203;DHT22;6666;51.626;7.530;2023-04-01T03:22:15;9.90;99.90
13203;DHT22;6666;51.626;7.530;2023-04-01T03:24:45;9.90;99.90
13203;DHT22;6666;51.626;7.530;2023-04-01T03:27:14;9.90;99.90
13203;DHT22;6666;51.626;7.530;2023-04-01T03:29:45;9.90;99.90
13203;DHT22;6666;51.626;7.530;2023-04-01T03:32:13;9.80;99.90
13203;DHT22;6666;51.626;7.530;2023-04-01T03:34:42;9.90;99.90
13203;DHT22;6666;51.626;7.530;2023-04-01T03:37:11;9.90;99.90
13203;DHT22;6666;51.626;7.530;2023-04-01T03:39:40;9.90;99.90
13203;DHT22;6666;51.626;7.530;2023-04-01T03:42:10;9.80;99.90
13203;DHT22;6666;51.626;7.530;2023-04-01T03:44:38;9.90;99.90
13203;DHT22;6666;51.626;7.530;2023-04-01T03:47:11;9.80;99.90
13203;DHT22;6666;51.626;7.530;2023-04-01T03:49:39;9.80;99.90
13203;DHT22;6666;51.626;7.530;2023-04-01T03:52:09;9.80;99.90
13203;DHT22;6666;51.626;7.530;2023-04-01T03:54:39;9.80;99.90
13203;DHT22;6666;51.626;7.530;2023-04-01T03:57:08;9.80;99.90
13203;DHT22;6666;51.626;7.530;2023-04-01T03:59:37;9.80;99.90
13203;DHT22;6666;51.626;7.530;2023-04-01T04:02:05;9.80;99.90
13203;DHT22;6666;51.626;7.530;2023-04-01T04:04:35;9.80;99.90
13203;DHT22;6666;51.626;7.530;2023-04-01T04:07:04;9.80;99.90
13203;DHT22;6666;51.626;7.530;2023-04-01T04:09:49;9.80;99.90
13203;DHT22;6666;51.626;7.530;2023-04-01T04:12:17;9.80;99.90
13203;DHT22;6666;51.626;7.530;2023-04-01T04:14:45;9.80;99.90
13203;DHT22;6666;51.626;7.530;2023-04-01T04:17:14;9.80;99.90
13203;DHT22;6666;51.626;7.530;2023-04-01T04:19:45;9.70;99.90
13203;DHT22;6666;51.626;7.530;2023-04-01T04:22:15;9.70;99.90
13203;DHT22;6666;51.626;7.530;2023-04-01T04:24:44;9.80;99.90
13203;DHT22;6666;51.626;7.530;2023-04-01T04:27:13;9.80;99.90
13203;DHT22;6666;51.626;7.530;2023-04-01T04:29:50;9.80;99.90
13203;DHT22;6666;51.626;7.530;2023-04-01T04:32:19;9.80;99.90
13203;DHT22;6666;51.626;7.530;2023-04-01T04:34:48;9.80;99.90
13203;DHT22;6666;51.626;7.530;2023-04-01T04:37:18;9.80;99.90
13203;DHT22;6666;51.626;7.530;2023-04-01T04:39:47;9.80;99.90
13203;DHT22;6666;51.626;7.530;2023-04-01T04:42:15;9.90;99.90
13203;DHT22;6666;51.626;7.530;2023-04-01T04:44:44;9.80;99.90
13203;DHT22;6666;51.626;7.530;2023-04-01T04:47:12;9.80;99.90
13203;DHT22;6666;51.626;7.530;2023-04-01T04:49:41;9.80;99.90
13203;DHT22;6666;51.626;7.530;2023-04-01T04:52:10;9.80;99.90
13203;DHT22;6666;51.626;7.530;2023-04-01T04:54:39;9.80;99.90
13203;DHT22;6666;51.626;7.530;2023-04-01T04:57:07;9.80;99.90
13203;DHT22;6666;51.626;7.530;2023-04-01T04:59:43;9.80;99.90
13203;DHT22;6666;51.626;7.530;2023-04-01T05:02:16;9.90;99.90
13203;DHT22;6666;51.626;7.530;2023-04-01T05:04:44;9.90;99.90
13203;DHT22;6666;51.626;7.530;2023-04-01T05:07:14;9.90;99.90
13203;DHT22;6666;51.626;7.530;2023-04-01T05:09:43;9.90;99.90
13203;DHT22;6666;51.626;7.530;2023-04-01T05:12:13;9.90;99.90
13203;DHT22;6666;51.626;7.530;2023-04-01T05:15:02;9.80;99.90
13203;DHT22;6666;51.626;7.530;2023-04-01T05:17:31;9.80;99.90
13203;DHT22;6666;51.626;7.530;2023-04-01T05:20:01;9.80;99.90
13203;DHT22;6666;51.626;7.530;2023-04-01T05:22:33;9.90;99.90
13203;DHT22;6666;51.626;7.530;2023-04-01T05:25:01;9.90;99.90
13203;DHT22;6666;51.626;7.530;2023-04-01T05:27:30;9.90;99.90
13203;DHT22;6666;51.626;7.530;2023-04-01T05:29:59;9.90;99.90
13203;DHT22;6666;51.626;7.530;2023-04-01T05:32:56;9.90;99.90
13203;DHT22;6666;51.626;7.530;2023-04-01T05:35:25;9.90;99.90
13203;DHT22;6666;51.626;7.530;2023-04-01T05:37:55;10.00;99.90
13203;DHT22;6666;51.626;7.530;2023-04-01T05:40:24;10.00;99.90
13203;DHT22;6666;51.626;7.530;2023-04-01T05:42:53;9.90;99.90
13203;DHT22;6666;51.626;7.530;2023-04-01T05:45:21;9.90;99.90
13203;DHT22;6666;51.626;7.530;2023-04-01T05:47:59;9.90;99.90
13203;DHT22;6666;51.626;7.530;2023-04-01T05:50:35;9.90;99.90
13203;DHT22;6666;51.626;7.530;2023-04-01T05:53:06;10.00;99.90
13203;DHT22;6666;51.626;7.530;2023-04-01T05:55:35;10.00;99.90
13203;DHT22;6666;51.626;7.530;2023-04-01T05:58:04;10.00;99.90
13203;DHT22;6666;51.626;7.530;2023-04-01T06:00:34;10.00;99.90
13203;DHT22;6666;51.626;7.530;2023-04-01T06:03:03;10.00;99.90
13203;DHT22;6666;51.626;7.530;2023-04-01T06:05:39;10.10;99.90
13203;DHT22;6666;51.626;7.530;2023-04-01T06:08:12;10.00;99.90
13203;DHT22;6666;51.626;7.530;2023-04-01T06:10:57;10.10;99.90
13203;DHT22;6666;51.626;7.530;2023-04-01T06:13:37;10.10;99.90
13203;DHT22;6666;51.626;7.530;2023-04-01T06:16:14;10.10;99.90
13203;DHT22;6666;51.626;7.530;2023-04-01T06:18:51;10.20;99.90
13203;DHT22;6666;51.626;7.530;2023-04-01T06:21:37;10.30;99.90
13203;DHT22;6666;51.626;7.530;2023-04-01T06:24:34;10.30;99.90
13203;DHT22;6666;51.626;7.530;2023-04-01T06:27:10;10.30;99.90
13203;DHT22;6666;51.626;7.530;2023-04-01T06:29:53;10.30;99.90
13203;DHT22;6666;51.626;7.530;2023-04-01T06:32:42;10.30;99.90
13203;DHT22;6666;51.626;7.530;2023-04-01T06:38:25;10.40;99.90
13203;DHT22;6666;51.626;7.530;2023-04-01T06:41:24;10.40;99.90
13203;DHT22;6666;51.626;7.530;2023-04-01T06:44:04;10.40;99.90
13203;DHT22;6666;51.626;7.530;2023-04-01T06:46:58;10.40;99.90
13203;DHT22;6666;51.626;7.530;2023-04-01T06:49:52;10.60;99.90
13203;DHT22;6666;51.626;7.530;2023-04-01T06:52:29;10.60;99.90
13203;DHT22;6666;51.626;7.530;2023-04-01T06:55:41;10.50;99.90
13203;DHT22;6666;51.626;7.530;2023-04-01T06:58:26;10.50;99.90
13203;DHT22;6666;51.626;7.530;2023-04-01T07:00:58;10.60;99.90
13203;DHT22;6666;51.626;7.530;2023-04-01T07:03:32;10.60;99.90
13203;DHT22;6666;51.626;7.530;2023-04-01T07:06:05;10.70;99.90
13203;DHT22;6666;51.626;7.530;2023-04-01T07:08:41;10.70;99.90
13203;DHT22;6666;51.626;7.530;2023-04-01T07:11:17;10.70;99.90
13203;DHT22;6666;51.626;7.530;2023-04-01T07:14:16;10.80;99.90
13203;DHT22;6666;51.626;7.530;2023-04-01T07:16:48;10.80;99.90
13203;DHT22;6666;51.626;7.530;2023-04-01T07:19:24;10.70;99.90
13203;DHT22;6666;51.626;7.530;2023-04-01T07:22:05;10.70;99.90
13203;DHT22;6666;51.626;7.530;2023-04-01T07:24:54;10.70;99.90
13203;DHT22;6666;51.626;7.530;2023-04-01T07:27:25;10.70;99.90
13203;DHT22;6666;51.626;7.530;2023-04-01T07:29:57;10.70;99.90
13203;DHT22;6666;51.626;7.530;2023-04-01T07:32:32;10.70;99.90
13203;DHT22;6666;51.626;7.530;2023-04-01T07:35:13;10.70;99.90
13203;DHT22;6666;51.626;7.530;2023-04-01T07:37:53;10.60;99.90
13203;DHT22;6666;51.626;7.530;2023-04-01T07:40:32;10.70;99.90
13203;DHT22;6666;51.626;7.530;2023-04-01T07:46:34;10.60;99.90
13203;DHT22;6666;51.626;7.530;2023-04-01T07:49:06;10.60;99.90
13203;DHT22;6666;51.626;7.530;2023-04-01T07:51:41;10.50;99.90
13203;DHT22;6666;51.626;7.530;2023-04-01T07:54:20;10.60;99.90
13203;DHT22;6666;51.626;7.530;2023-04-01T07:56:55;10.60;99.90
13203;DHT22;6666;51.626;7.530;2023-04-01T07:59:48;10.60;99.90
13203;DHT22;6666;51.626;7.530;2023-04-01T08:02:34;10.70;99.90
13203;DHT22;6666;51.626;7.530;2023-04-01T08:05:15;10.70;99.90
13203;DHT22;6666;51.626;7.530;2023-04-01T08:07:49;10.70;99.90
13203;DHT22;6666;51.626;7.530;2023-04-01T08:10:49;10.70;99.90
13203;DHT22;6666;51.626;7.530;2023-04-01T08:13:42;10.90;99.90
13203;DHT22;6666;51.626;7.530;2023-04-01T08:16:37;10.90;99.90
13203;DHT22;6666;51.626;7.530;2023-04-01T08:19:24;10.80;99.90
13203;DHT22;6666;51.626;7.530;2023-04-01T08:22:00;10.90;99.90
13203;DHT22;6666;51.626;7.530;2023-04-01T08:24:37;10.90;99.90
13203;DHT22;6666;51.626;7.530;2023-04-01T08:27:23;10.90;99.90
13203;DHT22;6666;51.626;7.530;2023-04-01T08:29:58;10.80;99.90
13203;DHT22;6666;51.626;7.530;2023-04-01T08:32:34;10.90;99.90
13203;DHT22;6666;51.626;7.530;2023-04-01T08:35:14;10.90;99.90
13203;DHT22;6666;51.626;7.530;2023-04-01T08:37:48;10.90;99.90
13203;DHT22;6666;51.626;7.530;2023-04-01T08:47:03;11.10;99.90
13203;DHT22;6666;51.626;7.530;2023-04-01T08:52:57;11.00;99.90
13203;DHT22;6666;51.626;7.530;2023-04-01T08:55:46;10.90;99.90
13203;DHT22;6666;51.626;7.530;2023-04-01T08:58:30;10.90;99.90
13203;DHT22;6666;51.626;7.530;2023-04-01T09:01:21;11.00;99.90
13203;DHT22;6666;51.626;7.530;2023-04-01T09:04:13;10.90;99.90
13203;DHT22;6666;51.626;7.530;2023-04-01T09:06:52;11.00;99.90
13203;DHT22;6666;51.626;7.530;2023-04-01T09:12:42;11.00;99.90
13203;DHT22;6666;51.626;7.530;2023-04-01T09:15:34;11.00;99.90
13203;DHT22;6666;51.626;7.530;2023-04-01T09:18:42;11.00;99.90
13203;DHT22;6666;51.626;7.530;2023-04-01T09:21:29;10.90;99.90
13203;DHT22;6666;51.626;7.530;2023-04-01T09:24:22;10.90;99.90
13203;DHT22;6666;51.626;7.530;2023-04-01T09:27:03;10.80;99.90
13203;DHT22;6666;51.626;7.530;2023-04-01T09:29:51;10.90;99.90
13203;DHT22;6666;51.626;7.530;2023-04-01T09:32:38;11.00;99.90
13203;DHT22;6666;51.626;7.530;2023-04-01T09:35:22;11.00;99.90
13203;DHT22;6666;51.626;7.530;2023-04-01T09:38:04;10.90;99.90
13203;DHT22;6666;51.626;7.530;2023-04-01T09:40:45;10.90;99.90
13203;DHT22;6666;51.626;7.530;2023-04-01T09:43:27;10.90;99.90
13203;DHT22;6666;51.626;7.530;2023-04-01T09:46:18;10.90;99.90
13203;DHT22;6666;51.626;7.530;2023-04-01T09:52:11;10.90;99.90
13203;DHT22;6666;51.626;7.530;2023-04-01T09:54:58;11.00;99.90
13203;DHT22;6666;51.626;7.530;2023-04-01T10:01:41;10.90;99.90
13203;DHT22;6666;51.626;7.530;2023-04-01T10:04:51;11.00;99.90
13203;DHT22;6666;51.626;7.530;2023-04-01T10:13:55;11.00;99.90
13203;DHT22;6666;51.626;7.530;2023-04-01T10:17:00;11.10;99.90
13203;DHT22;6666;51.626;7.530;2023-04-01T10:19:55;11.10;99.90
13203;DHT22;6666;51.626;7.530;2023-04-01T10:22:46;11.10;99.90
13203;DHT22;6666;51.626;7.530;2023-04-01T10:25:55;11.10;99.90
13203;DHT22;6666;51.626;7.530;2023-04-01T10:32:12;11.10;99.90
13203;DHT22;6666;51.626;7.530;2023-04-01T10:35:20;11.20;99.90
13203;DHT22;6666;51.626;7.530;2023-04-01T10:41:28;11.30;99.90
13203;DHT22;6666;51.626;7.530;2023-04-01T10:50:58;11.50;99.90
13203;DHT22;6666;51.626;7.530;2023-04-01T10:56:39;11.60;99.90
13203;DHT22;6666;51.626;7.530;2023-04-01T10:59:51;11.40;99.90
13203;DHT22;6666;51.626;7.530;2023-04-01T11:07:11;11.50;99.90
13203;DHT22;6666;51.626;7.530;2023-04-01T11:13:13;11.50;99.90
13203;DHT22;6666;51.626;7.530;2023-04-01T11:22:30;11.60;99.90
13203;DHT22;6666;51.626;7.530;2023-04-01T11:29:01;11.40;99.90
13203;DHT22;6666;51.626;7.530;2023-04-01T11:31:44;11.50;99.90
13203;DHT22;6666;51.626;7.530;2023-04-01T11:34:32;11.40;99.90
13203;DHT22;6666;51.626;7.530;2023-04-01T11:37:11;11.50;99.90
13203;DHT22;6666;51.626;7.530;2023-04-01T11:40:16;11.60;99.90
13203;DHT22;6666;51.626;7.530;2023-04-01T11:43:20;11.60;99.90
13203;DHT22;6666;51.626;7.530;2023-04-01T11:46:23;11.40;99.90
13203;DHT22;6666;51.626;7.530;2023-04-01T11:49:00;11.50;99.90
13203;DHT22;6666;51.626;7.530;2023-04-01T11:51:54;11.50;99.90
13203;DHT22;6666;51.626;7.530;2023-04-01T11:54:40;11.50;99.90
13203;DHT22;6666;51.626;7.530;2023-04-01T11:57:35;11.50;99.90
13203;DHT22;6666;51.626;7.530;2023-04-01T12:00:40;11.60;99.90
13203;DHT22;6666;51.626;7.530;2023-04-01T12:03:37;11.70;99.90
13203;DHT22;6666;51.626;7.530;2023-04-01T12:06:13;11.90;99.90
13203;DHT22;6666;51.626;7.530;2023-04-01T12:08:48;11.90;99.90
13203;DHT22;6666;51.626;7.530;2023-04-01T12:11:27;12.10;99.90
13203;DHT22;6666;51.626;7.530;2023-04-01T12:14:03;12.20;99.90
13203;DHT22;6666;51.626;7.530;2023-04-01T12:16:50;12.40;99.90
13203;DHT22;6666;51.626;7.530;2023-04-01T12:19:26;12.30;99.90
13203;DHT22;6666;51.626;7.530;2023-04-01T12:22:09;12.20;99.90
13203;DHT22;6666;51.626;7.530;2023-04-01T12:24:47;12.20;99.90
13203;DHT22;6666;51.626;7.530;2023-04-01T12:27:26;12.10;99.90
13203;DHT22;6666;51.626;7.530;2023-04-01T12:33:29;12.00;99.90
13203;DHT22;6666;51.626;7.530;2023-04-01T12:36:18;11.90;99.90
13203;DHT22;6666;51.626;7.530;2023-04-01T12:39:07;11.70;99.90
13203;DHT22;6666;51.626;7.530;2023-04-01T12:41:46;11.70;99.90
13203;DHT22;6666;51.626;7.530;2023-04-01T12:44:29;11.70;99.90
13203;DHT22;6666;51.626;7.530;2023-04-01T12:47:17;11.80;99.90
13203;DHT22;6666;51.626;7.530;2023-04-01T12:50:02;11.80;99.90
13203;DHT22;6666;51.626;7.530;2023-04-01T12:52:49;11.70;99.90
13203;DHT22;6666;51.626;7.530;2023-04-01T12:55:38;11.70;99.90
13203;DHT22;6666;51.626;7.530;2023-04-01T12:58:27;11.70;99.90
13203;DHT22;6666;51.626;7.530;2023-04-01T13:01:27;11.60;99.90
13203;DHT22;6666;51.626;7.530;2023-04-01T13:07:17;11.60;99.90
13203;DHT22;6666;51.626;7.530;2023-04-01T13:09:57;11.60;99.90
13203;DHT22;6666;51.626;7.530;2023-04-01T13:15:35;11.70;99.90
13203;DHT22;6666;51.626;7.530;2023-04-01T13:18:14;11.80;99.90
13203;DHT22;6666;51.626;7.530;2023-04-01T13:20:51;11.80;99.90
13203;DHT22;6666;51.626;7.530;2023-04-01T13:23:33;11.90;99.90
13203;DHT22;6666;51.626;7.530;2023-04-01T13:26:13;11.90;99.90
13203;DHT22;6666;51.626;7.530;2023-04-01T13:28:50;11.70;99.90
13203;DHT22;6666;51.626;7.530;2023-04-01T13:31:36;11.70;99.90
13203;DHT22;6666;51.626;7.530;2023-04-01T13:34:19;11.70;99.90
13203;DHT22;6666;51.626;7.530;2023-04-01T13:36:59;11.70;99.90
13203;DHT22;6666;51.626;7.530;2023-04-01T13:39:53;11.60;99.90
13203;DHT22;6666;51.626;7.530;2023-04-01T13:42:28;11.60;99.90
13203;DHT22;6666;51.626;7.530;2023-04-01T13:45:01;11.60;99.90
13203;DHT22;6666;51.626;7.530;2023-04-01T13:48:02;11.50;99.90
13203;DHT22;6666;51.626;7.530;2023-04-01T13:50:42;11.60;99.90
13203;DHT22;6666;51.626;7.530;2023-04-01T13:53:39;11.60;99.90
13203;DHT22;6666;51.626;7.530;2023-04-01T13:56:19;11.50;99.90
13203;DHT22;6666;51.626;7.530;2023-04-01T13:59:03;11.60;99.90
13203;DHT22;6666;51.626;7.530;2023-04-01T14:01:40;11.50;99.90
13203;DHT22;6666;51.626;7.530;2023-04-01T14:04:38;11.60;99.90
13203;DHT22;6666;51.626;7.530;2023-04-01T14:07:31;11.60;99.90
13203;DHT22;6666;51.626;7.530;2023-04-01T14:12:55;11.50;99.90
13203;DHT22;6666;51.626;7.530;2023-04-01T14:15:41;11.40;99.90
13203;DHT22;6666;51.626;7.530;2023-04-01T14:18:25;11.40;99.90
13203;DHT22;6666;51.626;7.530;2023-04-01T14:21:08;11.30;99.90
13203;DHT22;6666;51.626;7.530;2023-04-01T14:23:55;11.40;99.90
13203;DHT22;6666;51.626;7.530;2023-04-01T14:26:50;11.50;99.90
13203;DHT22;6666;51.626;7.530;2023-04-01T14:29:29;11.50;99.90
13203;DHT22;6666;51.626;7.530;2023-04-01T14:32:10;11.50;99.90
13203;DHT22;6666;51.626;7.530;2023-04-01T14:34:53;11.50;99.90
13203;DHT22;6666;51.626;7.530;2023-04-01T14:37:48;11.50;99.90
13203;DHT22;6666;51.626;7.530;2023-04-01T14:40:27;11.30;99.90
13203;DHT22;6666;51.626;7.530;2023-04-01T14:43:10;11.40;99.90
13203;DHT22;6666;51.626;7.530;2023-04-01T14:46:03;11.40;99.90
13203;DHT22;6666;51.626;7.530;2023-04-01T14:48:37;11.50;99.90
13203;DHT22;6666;51.626;7.530;2023-04-01T14:51:15;11.50;99.90
13203;DHT22;6666;51.626;7.530;2023-04-01T14:53:56;11.60;99.90
13203;DHT22;6666;51.626;7.530;2023-04-01T14:56:41;11.40;99.90
13203;DHT22;6666;51.626;7.530;2023-04-01T14:59:14;11.40;99.90
13203;DHT22;6666;51.626;7.530;2023-04-01T15:01:50;11.40;99.90
13203;DHT22;6666;51.626;7.530;2023-04-01T15:04:41;11.40;99.90
13203;DHT22;6666;51.626;7.530;2023-04-01T15:10:33;11.40;99.90
13203;DHT22;6666;51.626;7.530;2023-04-01T15:13:12;11.40;99.90
13203;DHT22;6666;51.626;7.530;2023-04-01T15:15:55;11.50;99.90
13203;DHT22;6666;51.626;7.530;2023-04-01T15:18:37;11.40;99.90
13203;DHT22;6666;51.626;7.530;2023-04-01T15:21:18;11.40;99.90
13203;DHT22;6666;51.626;7.530;2023-04-01T15:23:57;11.20;99.90
13203;DHT22;6666;51.626;7.530;2023-04-01T15:26:47;11.30;99.90
13203;DHT22;6666;51.626;7.530;2023-04-01T15:29:34;11.30;99.90
13203;DHT22;6666;51.626;7.530;2023-04-01T15:32:13;11.20;99.90
13203;DHT22;6666;51.626;7.530;2023-04-01T15:34:50;11.30;99.90
13203;DHT22;6666;51.626;7.530;2023-04-01T15:37:31;11.30;99.90
13203;DHT22;6666;51.626;7.530;2023-04-01T15:40:11;11.30;99.90
13203;DHT22;6666;51.626;7.530;2023-04-01T15:42:54;11.30;99.90
13203;DHT22;6666;51.626;7.530;2023-04-01T15:45:33;11.20;99.90
13203;DHT22;6666;51.626;7.530;2023-04-01T15:48:19;11.20;99.90
13203;DHT22;6666;51.626;7.530;2023-04-01T15:51:06;11.20;99.90
13203;DHT22;6666;51.626;7.530;2023-04-01T15:53:50;11.30;99.90
13203;DHT22;6666;51.626;7.530;2023-04-01T15:56:28;11.30;99.90
13203;DHT22;6666;51.626;7.530;2023-04-01T15:59:14;11.30;99.90
13203;DHT22;6666;51.626;7.530;2023-04-01T16:01:51;11.50;99.90
13203;DHT22;6666;51.626;7.530;2023-04-01T16:04:48;11.60;99.90
13203;DHT22;6666;51.626;7.530;2023-04-01T16:10:17;11.50;99.90
13203;DHT22;6666;51.626;7.530;2023-04-01T16:12:59;11.50;99.90
13203;DHT22;6666;51.626;7.530;2023-04-01T16:15:37;11.50;99.90
13203;DHT22;6666;51.626;7.530;2023-04-01T16:18:25;11.50;99.90
13203;DHT22;6666;51.626;7.530;2023-04-01T16:20:59;11.40;99.90
13203;DHT22;6666;51.626;7.530;2023-04-01T16:23:36;11.40;99.90
13203;DHT22;6666;51.626;7.530;2023-04-01T16:26:08;11.40;99.90
13203;DHT22;6666;51.626;7.530;2023-04-01T16:28:42;11.40;99.90
13203;DHT22;6666;51.626;7.530;2023-04-01T16:31:32;11.50;99.90
13203;DHT22;6666;51.626;7.530;2023-04-01T16:34:08;11.50;99.90
13203;DHT22;6666;51.626;7.530;2023-04-01T16:36:43;11.50;99.90
13203;DHT22;6666;51.626;7.530;2023-04-01T16:39:27;11.40;99.90
13203;DHT22;6666;51.626;7.530;2023-04-01T16:44:59;11.40;99.90
13203;DHT22;6666;51.626;7.530;2023-04-01T16:47:34;11.50;99.90
13203;DHT22;6666;51.626;7.530;2023-04-01T16:50:11;11.40;99.90
13203;DHT22;6666;51.626;7.530;2023-04-01T16:52:53;11.40;99.90
13203;DHT22;6666;51.626;7.530;2023-04-01T16:55:35;11.30;99.90
13203;DHT22;6666;51.626;7.530;2023-04-01T16:58:14;11.30;99.90
13203;DHT22;6666;51.626;7.530;2023-04-01T17:00:49;11.30;99.90
13203;DHT22;6666;51.626;7.530;2023-04-01T17:03:26;11.30;99.90
13203;DHT22;6666;51.626;7.530;2023-04-01T17:06:05;11.30;99.90
13203;DHT22;6666;51.626;7.530;2023-04-01T17:08:48;11.20;99.90
13203;DHT22;6666;51.626;7.530;2023-04-01T17:11:19;11.20;99.90
13203;DHT22;6666;51.626;7.530;2023-04-01T17:13:54;11.20;99.90
13203;DHT22;6666;51.626;7.530;2023-04-01T17:16:47;11.20;99.90
13203;DHT22;6666;51.626;7.530;2023-04-01T17:19:32;11.20;99.90
13203;DHT22;6666;51.626;7.530;2023-04-01T17:22:11;11.10;99.90
13203;DHT22;6666;51.626;7.530;2023-04-01T17:24:54;11.10;99.90
13203;DHT22;6666;51.626;7.530;2023-04-01T17:27:36;11.10;99.90
13203;DHT22;6666;51.626;7.530;2023-04-01T17:30:28;11.20;99.90
13203;DHT22;6666;51.626;7.530;2023-04-01T17:36:12;11.30;99.90
13203;DHT22;6666;51.626;7.530;2023-04-01T17:38:57;11.20;99.90
13203;DHT22;6666;51.626;7.530;2023-04-01T17:41:36;11.10;99.90
13203;DHT22;6666;51.626;7.530;2023-04-01T17:44:22;11.20;99.90
13203;DHT22;6666;51.626;7.530;2023-04-01T17:47:10;11.20;99.90
13203;DHT22;6666;51.626;7.530;2023-04-01T17:49:47;11.20;99.90
13203;DHT22;6666;51.626;7.530;2023-04-01T17:52:26;11.10;99.90
13203;DHT22;6666;51.626;7.530;2023-04-01T17:55:11;11.10;99.90
13203;DHT22;6666;51.626;7.530;2023-04-01T17:57:46;11.00;99.90
13203;DHT22;6666;51.626;7.530;2023-04-01T18:00:24;11.00;99.90
13203;DHT22;6666;51.626;7.530;2023-04-01T18:03:16;11.00;99.90
13203;DHT22;6666;51.626;7.530;2023-04-01T18:06:01;11.00;99.90
13203;DHT22;6666;51.626;7.530;2023-04-01T18:08:47;11.00;99.90
13203;DHT22;6666;51.626;7.530;2023-04-01T18:11:25;11.00;99.90
13203;DHT22;6666;51.626;7.530;2023-04-01T18:17:03;11.00;99.90
13203;DHT22;6666;51.626;7.530;2023-04-01T18:19:43;11.00;99.90
13203;DHT22;6666;51.626;7.530;2023-04-01T18:22:19;11.00;99.90
13203;DHT22;6666;51.626;7.530;2023-04-01T18:24:58;11.00;99.90
13203;DHT22;6666;51.626;7.530;2023-04-01T18:27:31;11.00;99.90
13203;DHT22;6666;51.626;7.530;2023-04-01T18:30:07;11.00;99.90
13203;DHT22;6666;51.626;7.530;2023-04-01T18:32:44;11.00;99.90
13203;DHT22;6666;51.626;7.530;2023-04-01T18:35:21;11.00;99.90
13203;DHT22;6666;51.626;7.530;2023-04-01T18:37:55;11.10;99.90
13203;DHT22;6666;51.626;7.530;2023-04-01T18:40:32;11.00;99.90